Airfield :
LOGIN :

Register | Disclaimer

   EN    FR    IT 

 










Legend :    VFR   Marginal VFR   IFR   Intensive IFR   Very Intensive IFR
Visi :
Ceiling :
>= 8 km
>= 3000ft
5 to 8 km
1000 to 3000 ft
1500m to 5 km
500 to 1000 ft
800 to 1500m
200 to 500 ft
< 800m
< 200 ft
Symbols :   Thunderstorms  Fog  Heavy snow  Heavy precipitations  Wind > 20 kt
SIGMETs :     Misc.  Thunderstorms  Icing  Turbulence  Mountain Waves  Volcanic Ashes







- Airport Elevation : 2096 ft
- IATA code : AUR
- Download approach charts


LFLW - Aurillac

CURRENT METAR :
  • 202330Z AUTO 11001KT CAVOK 07/04 Q1026

EXPIRED METARs :
  • 202300Z AUTO 07002KT CAVOK 08/05 Q1026
  • 202230Z AUTO 11004KT CAVOK 07/04 Q1026
  • 202200Z AUTO 09005KT CAVOK 08/04 Q1026
  • 202130Z AUTO 10004KT CAVOK 10/06 Q1026
  • 202100Z AUTO 10005KT CAVOK 10/06 Q1026

TAF TAF LFLW
Valid from the 20 at 15:00 until the 21 at 00:00 UTC


201400Z 2015/2024 12008KT CAVOK
No reported NOTAMs for that airfield.
1 SIGMET reported for the Bordeaux FIR (LFBB) :
 
Severe turbulence
LFBB SIGMET 4 VALID 202100/210000 LFPW
LFBB BORDEAUX FIR/UIR SEV TURB FCST WI N4300 W00100 - N4300 W00145 - N4330 W00145 - N4345 E00245 - N4300 E00230 - N4300 W00100 FL270/330 MOV S 10KT WKN=



MET'MAP, your aeronautical weather chart ! - Copyright ORBIFLY December 2007 - Disclaimer

ORBIFLY MET'MAP TEAM :

Programming & Development : Alexandra Zaïnal
Concept & Development : Baudouin d'Aumeries
Co-Development & Prog : Marc-Olivier Méhu
Technical & hardware support : Manuel Goepfert

Contact : metmap@orbifly.com




SOURCES & CREDITS :

   NOAA